Caribbean Princess — ZCDG8 — position and weather

sailwx.info

Track history (hours):
 
Tides and Currents Weather Stations Pressure Air Temp Water Temp Dewpoint Dewpoint Depression Visibility Wind Speed Wind Dir Waves Ship Positions

Caribbean Princess

Operator: Princess Cruises

Last reported at 2018-Apr-20 06:00 UTC. Time now 2018-Apr-20 12:43 UTC.
Position N 23°00' W 071°36'.

Type: Passenger vessel. MMSI: 310423000.

Wind from 130 at 12 knots

Barometer 1018.8 mb
Air temperature 26.0 ° C
Visibility: greater than 10.8 NM
Dewpoint 26.0 ° C
Water temperature 27.0 ° C

Date/timePositionNaut miles runAvg speedWind from/ knotsBaromVisibWave heightAir tempDewpointWater temp
2018-Apr-20 06:00N 23°00' W 071°36'13118.7 130 / 121018.810.8 26.026.027.0
2018-Apr-19 23:00N 22°00' W 069°30'7017.5 120 / 151019.210.8 26.026.027.0
2018-Apr-19 19:00N 21°18' W 068°30'5914.7 140 / 201019.610.8 26.022.327.0
2018-Apr-19 15:00N 20°48' W 067°36'6722.2 120 / 221020.610.8 26.022.327.0
2018-Apr-19 12:00N 20°12' W 066°36'7214.3 110 / 181020.310.8 25.022.827.0
2018-Apr-19 07:00N 19°36' W 065°30'14318.4 120 / 221017.510.8 25.022.027.0
2018-Apr-18 23:12N 18°14' W 063°26'517.4
2018-Apr-18 22:56N 18°11' W 063°23'918.0
2018-Apr-18 22:28N 18°05' W 063°16'817.7
2018-Apr-18 22:00N 18°02' W 063°08'5 9.7
2018-Apr-18 21:28N 18°01' W 063°03'0 0.0
2018-Apr-18 14:06N 18°01' W 063°03'0 0.0
2018-Apr-18 10:40N 18°01' W 063°03'0 0.1
2018-Apr-18 10:29N 18°01' W 063°03'1 2.8
2018-Apr-18 09:59N 18°00' W 063°04'5 9.5
2018-Apr-18 09:27N 17°57' W 063°08'511.0
2018-Apr-18 08:58N 17°52' W 063°09'510.3
2018-Apr-18 08:27N 17°46' W 063°09'5 9.6
2018-Apr-18 07:56N 17°44' W 063°04'410.3
2018-Apr-18 07:30N 17°43' W 063°00'610.4
2018-Apr-18 06:53N 17°41' W 062°54'410.2
2018-Apr-18 06:28N 17°39' W 062°50'11 9.1
2018-Apr-18 05:14N 17°41' W 062°38'2 9.7
2018-Apr-18 05:00N 17°42' W 062°36'510.0
2018-Apr-18 04:30N 17°45' W 062°32'4 7.6
2018-Apr-18 04:00N 17°43' W 062°28'510.3
2018-Apr-18 03:30N 17°39' W 062°30'3 5.0
2018-Apr-18 03:00N 17°36' W 062°30'3746.4 120 / 321017.510.8 25.022.027.0
2018-Apr-18 02:59N 17°34' W 062°33'610.5
2018-Apr-18 02:27N 17°30' W 062°29'511.2
2018-Apr-18 02:00N 17°27' W 062°25'611.1
2018-Apr-18 01:30N 17°23' W 062°20'611.3
2018-Apr-18 01:00N 17°19' W 062°16'510.5
2018-Apr-18 00:30N 17°15' W 062°13'611.0
2018-Apr-17 23:59N 17°15' W 062°07'510.6
2018-Apr-17 23:30N 17°13' W 062°02'610.9
2018-Apr-17 23:00N 17°10' W 061°57'510.2
2018-Apr-17 22:30N 17°08' W 061°52'1 2.5
2018-Apr-17 21:58N 17°07' W 061°51'0 0.0
2018-Apr-17 21:28N 17°07' W 061°51'0 0.0
2018-Apr-17 20:52N 17°07' W 061°51'0 0.0
2018-Apr-17 20:28N 17°07' W 061°51'0 0.0
2018-Apr-17 19:58N 17°07' W 061°51'0 0.0
2018-Apr-17 19:28N 17°07' W 061°51'0 0.0
2018-Apr-17 19:00N 17°07' W 061°51'0 0.0
2018-Apr-17 18:30N 17°07' W 061°51'0 0.0
2018-Apr-17 18:00N 17°07' W 061°51'0 0.0
2018-Apr-17 17:29N 17°07' W 061°51'0 0.0
2018-Apr-17 16:59N 17°07' W 061°51'0 0.0
2018-Apr-17 16:29N 17°07' W 061°51'0 0.0
2018-Apr-17 15:59N 17°07' W 061°51'0 0.0
2018-Apr-17 15:29N 17°07' W 061°51'0 0.0
2018-Apr-17 14:59N 17°07' W 061°51'0 0.0
2018-Apr-17 14:29N 17°07' W 061°51'0 0.0
2018-Apr-17 13:59N 17°07' W 061°51'0 0.0
2018-Apr-17 13:29N 17°07' W 061°51'0 0.0
2018-Apr-17 12:59N 17°07' W 061°51'0 0.0
2018-Apr-17 12:29N 17°07' W 061°51'0 0.0
2018-Apr-17 11:58N 17°07' W 061°51'0 0.0
2018-Apr-17 11:28N 17°07' W 061°51'0 0.2
2018-Apr-17 11:00N 17°07' W 061°51'3 6.3
2018-Apr-17 10:30N 17°08' W 061°54'613.0
2018-Apr-17 10:00N 17°09' W 062°01'815.7
2018-Apr-17 09:30N 17°02' W 062°03'917.9
2018-Apr-17 09:01N 16°53' W 062°03'918.1
2018-Apr-17 08:30N 16°44' W 062°03'918.2
2018-Apr-17 08:00N 16°35' W 062°03'918.2
2018-Apr-17 07:30N 16°25' W 062°03'918.0
2018-Apr-17 07:00N 16°16' W 062°03'53521.0
2018-Apr-17 07:00N 16°12' W 062°00'510.9 010 / 221015.210.8 26.023.127.0
2018-Apr-17 06:30N 16°07' W 062°03'5617.9
2018-Apr-17 03:24N 15°16' W 061°42'1917.5
2018-Apr-17 02:18N 14°58' W 061°34'517.4
2018-Apr-17 02:00N 14°53' W 061°32'71296.1
2018-Apr-17 02:00N 15°00' W 061°30'1529.0 100 / 221016.710.8 25.023.527.0
2018-Apr-17 01:28N 14°45' W 061°28'1218.0
2018-Apr-17 00:47N 14°34' W 061°23'518.1
2018-Apr-17 00:31N 14°29' W 061°21'917.7
2018-Apr-16 23:59N 14°21' W 061°17'26 2.1
2018-Apr-16 11:25N 14°01' W 060°60'2 4.5
2018-Apr-16 10:58N 14°02' W 061°02'714.1
2018-Apr-16 10:29N 14°06' W 061°07'916.9
2018-Apr-16 09:58N 14°13' W 061°13'916.9
2018-Apr-16 09:27N 14°20' W 061°17'1116.8
2018-Apr-16 08:47N 14°30' W 061°22'617.0
2018-Apr-16 08:28N 14°35' W 061°25'14 9.3
2018-Apr-16 07:00N 14°48' W 061°30'10420.8 080 / 201015.410.8 26.023.127.0
2018-Apr-16 02:01N 16°20' W 062°20'118.3
2018-Apr-16 01:57N 16°21' W 062°21'817.5
2018-Apr-16 01:30N 16°28' W 062°25'916.5
2018-Apr-16 00:59N 16°35' W 062°29'817.1
2018-Apr-16 00:30N 16°43' W 062°33'44 3.1
2018-Apr-15 10:13N 17°21' W 062°55'418.5
2018-Apr-15 09:59N 17°23' W 062°59'817.3
2018-Apr-15 09:30N 17°29' W 063°05'1018.4
2018-Apr-15 08:59N 17°38' W 063°09'917.4
2018-Apr-15 08:28N 17°44' W 063°16'918.4
2018-Apr-15 08:00N 17°47' W 063°24'1018.3
2018-Apr-15 07:28N 17°52' W 063°33'918.0
2018-Apr-15 07:00N 17°54' W 063°42'33111.8 040 / 321017.810.8 26.024.627.0
2018-Apr-14 03:00N 20°36' W 068°48'6415.9 050 / 351018.910.8 26.121.528.0
2018-Apr-13 23:00N 21°06' W 069°48'22518.7 100 / 281017.910.8 26.021.527.0
2018-Apr-13 11:00N 22°48' W 073°24'15717.4 080 / 201018.110.8 25.024.327.0
2018-Apr-13 02:00N 24°12' W 075°48'38 2.5 070 / 251019.110.8 24.022.527.0
2018-Apr-12 11:00N 24°48' W 076°00'12215.3 020 / 191018.310.8 23.023.027.0
2018-Apr-12 03:00N 25°54' W 077°54'8919.7 030 / 301018.910.8 23.019.928.0
2018-Apr-11 22:29N 26°09' W 079°31'817.3
2018-Apr-11 22:01N 26°08' W 079°40'917.3
2018-Apr-11 21:30N 26°07' W 079°50'817.1
2018-Apr-11 21:00N 26°05' W 079°59'611.5
2018-Apr-11 20:30N 26°06' W 080°06'1 2.3
2018-Apr-11 19:58N 26°06' W 080°07'0 0.0
2018-Apr-11 19:28N 26°06' W 080°07'0 0.0
2018-Apr-11 18:59N 26°06' W 080°07'0 0.0
2018-Apr-11 18:30N 26°06' W 080°07'0 0.0
2018-Apr-11 17:59N 26°06' W 080°07'0 0.0
2018-Apr-11 17:29N 26°06' W 080°07'0 0.0
2018-Apr-11 16:58N 26°06' W 080°07'0 0.0
2018-Apr-11 16:28N 26°06' W 080°07'0 0.0
2018-Apr-11 15:58N 26°06' W 080°07'0 0.0
2018-Apr-11 15:28N 26°06' W 080°07'0 0.0
2018-Apr-11 14:58N 26°06' W 080°07'0 0.0
2018-Apr-11 14:28N 26°06' W 080°07'0 0.0
2018-Apr-11 14:00N 26°06' W 080°07'0 0.0
2018-Apr-11 13:30N 26°06' W 080°07'0 0.0
2018-Apr-11 13:00N 26°06' W 080°07'0 0.0
2018-Apr-11 12:30N 26°06' W 080°07'0 0.0
2018-Apr-11 12:00N 26°06' W 080°07'0 0.0
2018-Apr-11 11:30N 26°06' W 080°07'0 0.0
2018-Apr-11 10:59N 26°06' W 080°07'0 0.0
2018-Apr-11 10:28N 26°06' W 080°07'0 0.0
2018-Apr-11 09:58N 26°06' W 080°07'0 0.0
2018-Apr-11 09:30N 26°06' W 080°07'1 2.3
2018-Apr-11 09:00N 26°06' W 080°06'5 9.7
2018-Apr-11 08:30N 26°05' W 080°01'612.5
2018-Apr-11 08:00N 26°02' W 079°55'815.4
2018-Apr-11 07:30N 25°55' W 079°50'816.8
2018-Apr-11 07:00N 25°47' W 079°52'917.8
2018-Apr-11 06:30N 25°38' W 079°53'1020.4
2018-Apr-11 06:00N 25°28' W 079°55'1019.7
2018-Apr-11 05:30N 25°18' W 079°59'1118.9
2018-Apr-11 04:56N 25°09' W 080°04'1118.1
2018-Apr-11 04:22N 24°60' W 080°09'2719.8
2018-Apr-11 03:00N 24°36' W 080°24'513.2 030 / 251016.910.8 25.023.528.0
2018-Apr-11 02:36N 24°34' W 080°29'219.4
2018-Apr-11 02:28N 24°32' W 080°31'29018.8
2018-Apr-10 11:00N 22°00' W 085°00'   110 / 211016.310.8 26.024.628.0
Track history (hours):
 
Tides and Currents Weather Stations Pressure Air Temp Water Temp Dewpoint Dewpoint Depression Visibility Wind Speed Wind Dir Waves Ship Positions

Caribbean Princess

Operator: Princess Cruises

Last reported at 2018-Apr-20 06:00 UTC. Time now 2018-Apr-20 12:43 UTC.
Position N 23°00' W 071°36'.

Type: Passenger vessel. MMSI: 310423000.

Wind from 130 at 12 knots

Barometer 1018.8 mb
Air temperature 26.0 ° C
Visibility: greater than 10.8 NM
Dewpoint 26.0 ° C
Water temperature 27.0 ° C

Date/timePositionNaut miles runAvg speedWind from/ knotsBaromVisibWave heightAir tempDewpointWater temp
2018-Apr-20 06:00N 23°00' W 071°36'13118.7 130 / 121018.810.8 26.026.027.0
2018-Apr-19 23:00N 22°00' W 069°30'7017.5 120 / 151019.210.8 26.026.027.0
2018-Apr-19 19:00N 21°18' W 068°30'5914.7 140 / 201019.610.8 26.022.327.0
2018-Apr-19 15:00N 20°48' W 067°36'6722.2 120 / 221020.610.8 26.022.327.0
2018-Apr-19 12:00N 20°12' W 066°36'7214.3 110 / 181020.310.8 25.022.827.0
2018-Apr-19 07:00N 19°36' W 065°30'14318.4 120 / 221017.510.8 25.022.027.0
2018-Apr-18 23:12N 18°14' W 063°26'517.4
2018-Apr-18 22:56N 18°11' W 063°23'918.0
2018-Apr-18 22:28N 18°05' W 063°16'817.7
2018-Apr-18 22:00N 18°02' W 063°08'5 9.7
2018-Apr-18 21:28N 18°01' W 063°03'0 0.0
2018-Apr-18 14:06N 18°01' W 063°03'0 0.0
2018-Apr-18 10:40N 18°01' W 063°03'0 0.1
2018-Apr-18 10:29N 18°01' W 063°03'1 2.8
2018-Apr-18 09:59N 18°00' W 063°04'5 9.5
2018-Apr-18 09:27N 17°57' W 063°08'511.0
2018-Apr-18 08:58N 17°52' W 063°09'510.3
2018-Apr-18 08:27N 17°46' W 063°09'5 9.6
2018-Apr-18 07:56N 17°44' W 063°04'410.3
2018-Apr-18 07:30N 17°43' W 063°00'610.4
2018-Apr-18 06:53N 17°41' W 062°54'410.2
2018-Apr-18 06:28N 17°39' W 062°50'11 9.1
2018-Apr-18 05:14N 17°41' W 062°38'2 9.7
2018-Apr-18 05:00N 17°42' W 062°36'510.0
2018-Apr-18 04:30N 17°45' W 062°32'4 7.6
2018-Apr-18 04:00N 17°43' W 062°28'510.3
2018-Apr-18 03:30N 17°39' W 062°30'3 5.0
2018-Apr-18 03:00N 17°36' W 062°30'3746.4 120 / 321017.510.8 25.022.027.0
2018-Apr-18 02:59N 17°34' W 062°33'610.5
2018-Apr-18 02:27N 17°30' W 062°29'511.2
2018-Apr-18 02:00N 17°27' W 062°25'611.1
2018-Apr-18 01:30N 17°23' W 062°20'611.3
2018-Apr-18 01:00N 17°19' W 062°16'510.5
2018-Apr-18 00:30N 17°15' W 062°13'611.0
2018-Apr-17 23:59N 17°15' W 062°07'510.6
2018-Apr-17 23:30N 17°13' W 062°02'610.9
2018-Apr-17 23:00N 17°10' W 061°57'510.2
2018-Apr-17 22:30N 17°08' W 061°52'1 2.5
2018-Apr-17 21:58N 17°07' W 061°51'0 0.0
2018-Apr-17 21:28N 17°07' W 061°51'0 0.0
2018-Apr-17 20:52N 17°07' W 061°51'0 0.0
2018-Apr-17 20:28N 17°07' W 061°51'0 0.0
2018-Apr-17 19:58N 17°07' W 061°51'0 0.0
2018-Apr-17 19:28N 17°07' W 061°51'0 0.0
2018-Apr-17 19:00N 17°07' W 061°51'0 0.0
2018-Apr-17 18:30N 17°07' W 061°51'0 0.0
2018-Apr-17 18:00N 17°07' W 061°51'0 0.0
2018-Apr-17 17:29N 17°07' W 061°51'0 0.0
2018-Apr-17 16:59N 17°07' W 061°51'0 0.0
2018-Apr-17 16:29N 17°07' W 061°51'0 0.0
2018-Apr-17 15:59N 17°07' W 061°51'0 0.0
2018-Apr-17 15:29N 17°07' W 061°51'0 0.0
2018-Apr-17 14:59N 17°07' W 061°51'0 0.0
2018-Apr-17 14:29N 17°07' W 061°51'0 0.0
2018-Apr-17 13:59N 17°07' W 061°51'0 0.0
2018-Apr-17 13:29N 17°07' W 061°51'0 0.0
2018-Apr-17 12:59N 17°07' W 061°51'0 0.0
2018-Apr-17 12:29N 17°07' W 061°51'0 0.0
2018-Apr-17 11:58N 17°07' W 061°51'0 0.0
2018-Apr-17 11:28N 17°07' W 061°51'0 0.2
2018-Apr-17 11:00N 17°07' W 061°51'3 6.3
2018-Apr-17 10:30N 17°08' W 061°54'613.0
2018-Apr-17 10:00N 17°09' W 062°01'815.7
2018-Apr-17 09:30N 17°02' W 062°03'917.9
2018-Apr-17 09:01N 16°53' W 062°03'918.1
2018-Apr-17 08:30N 16°44' W 062°03'918.2
2018-Apr-17 08:00N 16°35' W 062°03'918.2
2018-Apr-17 07:30N 16°25' W 062°03'918.0
2018-Apr-17 07:00N 16°16' W 062°03'53521.0
2018-Apr-17 07:00N 16°12' W 062°00'510.9 010 / 221015.210.8 26.023.127.0
2018-Apr-17 06:30N 16°07' W 062°03'5617.9
2018-Apr-17 03:24N 15°16' W 061°42'1917.5
2018-Apr-17 02:18N 14°58' W 061°34'517.4
2018-Apr-17 02:00N 14°53' W 061°32'71296.1
2018-Apr-17 02:00N 15°00' W 061°30'1529.0 100 / 221016.710.8 25.023.527.0
2018-Apr-17 01:28N 14°45' W 061°28'1218.0
2018-Apr-17 00:47N 14°34' W 061°23'518.1
2018-Apr-17 00:31N 14°29' W 061°21'917.7
2018-Apr-16 23:59N 14°21' W 061°17'26 2.1
2018-Apr-16 11:25N 14°01' W 060°60'2 4.5
2018-Apr-16 10:58N 14°02' W 061°02'714.1
2018-Apr-16 10:29N 14°06' W 061°07'916.9
2018-Apr-16 09:58N 14°13' W 061°13'916.9
2018-Apr-16 09:27N 14°20' W 061°17'1116.8
2018-Apr-16 08:47N 14°30' W 061°22'617.0
2018-Apr-16 08:28N 14°35' W 061°25'14 9.3
2018-Apr-16 07:00N 14°48' W 061°30'10420.8 080 / 201015.410.8 26.023.127.0
2018-Apr-16 02:01N 16°20' W 062°20'118.3
2018-Apr-16 01:57N 16°21' W 062°21'817.5
2018-Apr-16 01:30N 16°28' W 062°25'916.5
2018-Apr-16 00:59N 16°35' W 062°29'817.1
2018-Apr-16 00:30N 16°43' W 062°33'44 3.1
2018-Apr-15 10:13N 17°21' W 062°55'418.5
2018-Apr-15 09:59N 17°23' W 062°59'817.3
2018-Apr-15 09:30N 17°29' W 063°05'1018.4
2018-Apr-15 08:59N 17°38' W 063°09'917.4
2018-Apr-15 08:28N 17°44' W 063°16'918.4
2018-Apr-15 08:00N 17°47' W 063°24'1018.3
2018-Apr-15 07:28N 17°52' W 063°33'918.0
2018-Apr-15 07:00N 17°54' W 063°42'33111.8 040 / 321017.810.8 26.024.627.0
2018-Apr-14 03:00N 20°36' W 068°48'6415.9 050 / 351018.910.8 26.121.528.0
2018-Apr-13 23:00N 21°06' W 069°48'22518.7 100 / 281017.910.8 26.021.527.0
2018-Apr-13 11:00N 22°48' W 073°24'15717.4 080 / 201018.110.8 25.024.327.0
2018-Apr-13 02:00N 24°12' W 075°48'38 2.5 070 / 251019.110.8 24.022.527.0
2018-Apr-12 11:00N 24°48' W 076°00'12215.3 020 / 191018.310.8 23.023.027.0
2018-Apr-12 03:00N 25°54' W 077°54'8919.7 030 / 301018.910.8 23.019.928.0
2018-Apr-11 22:29N 26°09' W 079°31'817.3
2018-Apr-11 22:01N 26°08' W 079°40'917.3
2018-Apr-11 21:30N 26°07' W 079°50'817.1
2018-Apr-11 21:00N 26°05' W 079°59'611.5
2018-Apr-11 20:30N 26°06' W 080°06'1 2.3
2018-Apr-11 19:58N 26°06' W 080°07'0 0.0
2018-Apr-11 19:28N 26°06' W 080°07'0 0.0
2018-Apr-11 18:59N 26°06' W 080°07'0 0.0
2018-Apr-11 18:30N 26°06' W 080°07'0 0.0
2018-Apr-11 17:59N 26°06' W 080°07'0 0.0
2018-Apr-11 17:29N 26°06' W 080°07'0 0.0
2018-Apr-11 16:58N 26°06' W 080°07'0 0.0
2018-Apr-11 16:28N 26°06' W 080°07'0 0.0
2018-Apr-11 15:58N 26°06' W 080°07'0 0.0
2018-Apr-11 15:28N 26°06' W 080°07'0 0.0
2018-Apr-11 14:58N 26°06' W 080°07'0 0.0
2018-Apr-11 14:28N 26°06' W 080°07'0 0.0
2018-Apr-11 14:00N 26°06' W 080°07'0 0.0
2018-Apr-11 13:30N 26°06' W 080°07'0 0.0
2018-Apr-11 13:00N 26°06' W 080°07'0 0.0
2018-Apr-11 12:30N 26°06' W 080°07'0 0.0
2018-Apr-11 12:00N 26°06' W 080°07'0 0.0
2018-Apr-11 11:30N 26°06' W 080°07'0 0.0
2018-Apr-11 10:59N 26°06' W 080°07'0 0.0
2018-Apr-11 10:28N 26°06' W 080°07'0 0.0
2018-Apr-11 09:58N 26°06' W 080°07'0 0.0
2018-Apr-11 09:30N 26°06' W 080°07'1 2.3
2018-Apr-11 09:00N 26°06' W 080°06'5 9.7
2018-Apr-11 08:30N 26°05' W 080°01'612.5
2018-Apr-11 08:00N 26°02' W 079°55'815.4
2018-Apr-11 07:30N 25°55' W 079°50'816.8
2018-Apr-11 07:00N 25°47' W 079°52'917.8
2018-Apr-11 06:30N 25°38' W 079°53'1020.4
2018-Apr-11 06:00N 25°28' W 079°55'1019.7
2018-Apr-11 05:30N 25°18' W 079°59'1118.9
2018-Apr-11 04:56N 25°09' W 080°04'1118.1
2018-Apr-11 04:22N 24°60' W 080°09'2719.8
2018-Apr-11 03:00N 24°36' W 080°24'513.2 030 / 251016.910.8 25.023.528.0
2018-Apr-11 02:36N 24°34' W 080°29'219.4
2018-Apr-11 02:28N 24°32' W 080°31'29018.8
2018-Apr-10 11:00N 22°00' W 085°00'   110 / 211016.310.8 26.024.628.0

Dump ship's entire track history